N56Y -KSAN
Flight info
| Callsign | N56Y |
|---|---|
| Flight time | N/A |
| Altitude | VFR |
| Route | |
| Aircraft | TBM9/L-VGD/C |
Departure
| Time | N/A |
|---|---|
| Airport | - |
Arrival
| Time | 2026-04-24 23:50 |
|---|---|
| Airport | San Diego International Airport (KSAN) |
| Time | Latitude | Longitude | Altitude | Speed | Heading |
|---|---|---|---|---|---|
| 2026-04-24 23:50 | 32.73312 | -117.18308 | 18 ft | 0 kts | 108° |
| 2026-04-24 23:51 | 32.73304 | -117.18281 | 18 ft | 16 kts | 107° |
| 2026-04-24 23:51 | 32.73243 | -117.18027 | 17 ft | 34 kts | 104° |
| 2026-04-24 23:51 | 32.73186 | -117.17789 | 18 ft | 27 kts | 107° |
| 2026-04-24 23:52 | 32.73148 | -117.17633 | 17 ft | 0 kts | 108° |
| 2026-04-24 23:52 | 32.73118 | -117.17565 | 17 ft | 11 kts | 140° |
| 2026-04-24 23:52 | 32.73100 | -117.17553 | 17 ft | 0 kts | 159° |
| 2026-04-24 23:54 | 32.73023 | -117.17648 | 16 ft | 41 kts | 293° |
| 2026-04-24 23:55 | 32.73172 | -117.18195 | 67 ft | 97 kts | 290° |
| 2026-04-24 23:55 | 32.73420 | -117.19154 | 173 ft | 146 kts | 287° |
| 2026-04-24 23:55 | 32.73768 | -117.20401 | 347 ft | 144 kts | 287° |
| 2026-04-24 23:55 | 32.74068 | -117.21266 | 854 ft | 102 kts | 298° |
| 2026-04-24 23:56 | 32.74814 | -117.21518 | 900 ft | 151 kts | 21° |
| 2026-04-24 23:56 | 32.75342 | -117.20640 | 1278 ft | 105 kts | 89° |
| 2026-04-24 23:56 | 32.75208 | -117.19862 | 1169 ft | 95 kts | 111° |
| 2026-04-24 23:56 | 32.75025 | -117.19107 | 1080 ft | 94 kts | 114° |
| 2026-04-24 23:57 | 32.74821 | -117.18356 | 1100 ft | 93 kts | 114° |
| 2026-04-24 23:57 | 32.74643 | -117.17615 | 1117 ft | 92 kts | 112° |
| 2026-04-24 23:57 | 32.74519 | -117.16888 | 1086 ft | 90 kts | 106° |
| 2026-04-24 23:57 | 32.74383 | -117.16220 | 1139 ft | 85 kts | 118° |
| 2026-04-24 23:58 | 32.74083 | -117.15491 | 1169 ft | 101 kts | 142° |
| 2026-04-24 23:58 | 32.73439 | -117.15425 | 1153 ft | 108 kts | 218° |
| 2026-04-24 23:58 | 32.72965 | -117.16252 | 769 ft | 142 kts | 251° |
| 2026-04-24 23:58 | 32.72967 | -117.17434 | 89 ft | 159 kts | 291° |
| 2026-04-24 23:59 | 32.73248 | -117.18572 | 27 ft | 129 kts | 286° |
| 2026-04-24 23:59 | 32.73451 | -117.19413 | 361 ft | 88 kts | 285° |
| 2026-04-24 23:59 | 32.73639 | -117.20181 | 583 ft | 103 kts | 285° |
| 2026-04-24 23:59 | 32.74176 | -117.20640 | 792 ft | 143 kts | 23° |
| 2026-04-25 00:00 | 32.74711 | -117.19593 | 1281 ft | 165 kts | 88° |
| 2026-04-25 00:00 | 32.74658 | -117.18297 | 1169 ft | 155 kts | 98° |
| 2026-04-25 00:00 | 32.74466 | -117.17085 | 1123 ft | 134 kts | 110° |
| 2026-04-25 00:00 | 32.74265 | -117.16229 | 1046 ft | 110 kts | 102° |
| 2026-04-25 00:01 | 32.74040 | -117.15453 | 1039 ft | 92 kts | 161° |
| 2026-04-25 00:01 | 32.73451 | -117.15586 | 844 ft | 93 kts | 219° |
| 2026-04-25 00:01 | 32.72941 | -117.16107 | 609 ft | 97 kts | 237° |
| 2026-04-25 00:01 | 32.72872 | -117.16801 | 361 ft | 100 kts | 272° |
| 2026-04-25 00:02 | 32.73067 | -117.17795 | 20 ft | 128 kts | 286° |
| 2026-04-25 00:02 | 32.73274 | -117.18618 | 20 ft | 74 kts | 287° |
| 2026-04-25 00:02 | 32.73349 | -117.18818 | 18 ft | 3 kts | 1° |
| 2026-04-25 00:02 | 32.73427 | -117.18721 | 16 ft | 21 kts | 120° |
| 2026-04-25 00:03 | 32.73317 | -117.18329 | 18 ft | 58 kts | 106° |
| 2026-04-25 00:03 | 32.73260 | -117.18099 | 18 ft | 0 kts | 107° |
| 2026-04-25 00:03 | 32.73253 | -117.18057 | 18 ft | 0 kts | 98° |
| 2026-04-25 00:04 | 32.73253 | -117.18056 | 18 ft | 0 kts | 94° |
| 2026-04-25 00:04 | 32.73304 | -117.18013 | 20 ft | 35 kts | 32° |
| 2026-04-25 00:05 | 32.73461 | -117.17909 | 23 ft | 0 kts | 27° |